CEB311 RCTP-RPLL
Flight info
| Callsign | CEB311 |
|---|---|
| Flight time | N/A |
| Altitude | 36000 |
| Route | TINHO1A TINHO Q11 TACLE/N0456F380 Q11 POTIB M646 LAO/N0453F370 B462 CAB CAB5R |
| Aircraft | A21N/M-SDE2E3FGHIRWXY/LB1 |
Departure
| Time | N/A |
|---|---|
| Airport | Taiwan Taoyuan International Airport (RCTP) |
Arrival
| Time | 2026-05-05 23:08 |
|---|---|
| Airport | Ninoy Aquino International Airport (RPLL) |
| Time | Latitude | Longitude | Altitude | Speed | Heading |
|---|---|---|---|---|---|
| 2026-05-05 23:04 | 14.42680 | 120.87196 | 2826 ft | 194 kts | 61° |
| 2026-05-05 23:04 | 14.43345 | 120.88398 | 2547 ft | 188 kts | 61° |
| 2026-05-05 23:04 | 14.43979 | 120.89544 | 2289 ft | 180 kts | 61° |
| 2026-05-05 23:04 | 14.44577 | 120.90626 | 2069 ft | 163 kts | 60° |
| 2026-05-05 23:05 | 14.45115 | 120.91595 | 1840 ft | 150 kts | 60° |
| 2026-05-05 23:05 | 14.45626 | 120.92517 | 1655 ft | 148 kts | 60° |
| 2026-05-05 23:05 | 14.46136 | 120.93439 | 1478 ft | 147 kts | 60° |
| 2026-05-05 23:05 | 14.46645 | 120.94354 | 1305 ft | 147 kts | 60° |
| 2026-05-05 23:06 | 14.47152 | 120.95269 | 1123 ft | 146 kts | 61° |
| 2026-05-05 23:06 | 14.47553 | 120.95990 | 973 ft | 146 kts | 62° |
| 2026-05-05 23:06 | 14.48038 | 120.96867 | 794 ft | 146 kts | 60° |
| 2026-05-05 23:06 | 14.48544 | 120.97776 | 606 ft | 145 kts | 61° |
| 2026-05-05 23:07 | 14.49045 | 120.98680 | 415 ft | 145 kts | 62° |
| 2026-05-05 23:07 | 14.49552 | 120.99590 | 225 ft | 144 kts | 62° |
| 2026-05-05 23:07 | 14.50051 | 121.00491 | 89 ft | 142 kts | 62° |
| 2026-05-05 23:07 | 14.50480 | 121.01263 | 82 ft | 88 kts | 59° |
| 2026-05-05 23:08 | 14.50672 | 121.01611 | 82 ft | 28 kts | 56° |
| 2026-05-05 23:08 | 14.50787 | 121.01735 | 82 ft | 20 kts | 39° |
| 2026-05-05 23:08 | 14.50875 | 121.01786 | 82 ft | 6 kts | 357° |
| 2026-05-05 23:08 | 14.50917 | 121.01761 | 82 ft | 7 kts | 314° |
| 2026-05-05 23:09 | 14.50959 | 121.01717 | 82 ft | 9 kts | 314° |
| 2026-05-05 23:09 | 14.51010 | 121.01664 | 82 ft | 10 kts | 315° |
| 2026-05-05 23:09 | 14.51066 | 121.01607 | 82 ft | 11 kts | 315° |
| 2026-05-05 23:09 | 14.51126 | 121.01545 | 82 ft | 12 kts | 315° |
| 2026-05-05 23:10 | 14.51188 | 121.01481 | 82 ft | 11 kts | 315° |
| 2026-05-05 23:10 | 14.51231 | 121.01438 | 82 ft | 7 kts | 326° |
| 2026-05-05 23:10 | 14.51280 | 121.01434 | 82 ft | 7 kts | 30° |
| 2026-05-05 23:10 | 14.51320 | 121.01477 | 82 ft | 8 kts | 51° |
| 2026-05-05 23:11 | 14.51363 | 121.01528 | 82 ft | 9 kts | 45° |
| 2026-05-05 23:11 | 14.51413 | 121.01578 | 82 ft | 10 kts | 36° |
| 2026-05-05 23:11 | 14.51478 | 121.01568 | 82 ft | 11 kts | 313° |
| 2026-05-05 23:11 | 14.51499 | 121.01555 | 82 ft | 3 kts | 11° |
| 2026-05-05 23:12 | 14.51523 | 121.01569 | 82 ft | 4 kts | 42° |
| 2026-05-05 23:12 | 14.51548 | 121.01595 | 82 ft | 5 kts | 44° |
| 2026-05-05 23:12 | 14.51566 | 121.01614 | 82 ft | 0 kts | 44° |